Flight Track Log - Related Links

Times and Time Zones

All times are in EDT time to prevent confusion due to time zone crossing. See the AMX466 flight status page for this flight to view local times or setup timezone preferences in your user account.

Time Position Orientation Groundspeed Altitude Reporting Facility
EDT Latitude Longitude Course Direction KTS MPH feet Rate Location/Type
Sat 11:27:00 PM 20.6133 -101.6575 86° East  Level FlightAware Approximate
Sat 11:28:00 PM 20.6197 -101.5302 87° East  Level FlightAware Approximate
Sat 11:29:00 PM 20.6260 -101.4029 87° East  Level FlightAware Approximate
Sat 11:30:00 PM 20.6322 -101.2756 87° East  Level FlightAware Approximate
Sat 11:31:00 PM 20.6383 -101.1483 87° East  Level FlightAware Approximate
Sat 11:32:00 PM 20.6444 -101.0210 87° East  Level FlightAware Approximate
Sat 11:33:00 PM 20.6500 -100.8995 86° East  Level FlightAware Approximate
Sat 11:34:00 PM 20.6584 -100.7723 86° East  Level FlightAware Approximate
Sat 11:35:00 PM 20.6666 -100.6451 86° East  Level FlightAware Approximate
Sat 11:36:00 PM 20.6748 -100.5179 86° East  Level FlightAware Approximate
Sat 11:37:00 PM 20.6829 -100.3907 86° East  Level FlightAware Approximate
Sat 11:38:00 PM 20.6901 -100.2634 87° East  Level FlightAware Approximate
Sat 11:39:00 PM 20.6973 -100.1361 87° East  Level FlightAware Approximate
Sat 11:40:00 PM 20.7043 -100.0088 87° East  Level FlightAware Approximate
Sat 11:41:00 PM 20.7113 -99.8814 87° East  Level FlightAware Approximate
Sat 11:42:00 PM 20.7182 -99.7541 87° East  Level FlightAware Approximate
Sat 11:43:00 PM 20.7250 -99.6267 87° East  Level FlightAware Approximate
Sat 11:44:00 PM 20.7316 -99.4994 87° East  Level FlightAware Approximate
Sat 11:45:00 PM 20.7381 -99.3720 87° East  Level FlightAware Approximate
Sat 11:46:00 PM 20.7445 -99.2446 87° East  Level FlightAware Approximate
Sat 11:47:00 PM 20.7507 -99.1172 87° East  Level FlightAware Approximate
Sat 11:48:00 PM 20.7569 -98.9898 87° East  Level FlightAware Approximate
Sat 11:49:00 PM 20.7630 -98.8624 87° East  Level FlightAware Approximate
Sat 11:50:00 PM 20.7686 -98.7349 88° East  Level FlightAware Approximate
Sat 11:51:00 PM 20.7736 -98.6074 88° East  Level FlightAware Approximate
Sat 11:52:00 PM 20.7784 -98.4799 88° East  Level FlightAware Approximate
Sat 11:53:00 PM 20.7832 -98.3524 88° East  Level FlightAware Approximate
Sat 11:54:00 PM 20.7879 -98.2249 88° East  Level FlightAware Approximate
Sat 11:55:00 PM 20.7925 -98.0974 88° East  Level FlightAware Approximate
Sat 11:56:00 PM 20.7970 -97.9699 88° East  Level FlightAware Approximate
Sat 11:57:00 PM 20.8014 -97.8424 88° East  Level FlightAware Approximate
Sat 11:58:00 PM 20.8057 -97.7148 88° East  Level FlightAware Approximate
Sat 11:59:00 PM 20.8099 -97.5873 88° East  Level FlightAware Approximate
Sun 12:00:00 AM 20.8140 -97.4597 88° East  Level FlightAware Approximate
Sun 12:01:00 AM 20.8180 -97.3322 88° East  Level FlightAware Approximate
Sun 12:02:00 AM 20.8220 -97.2046 88° East  Level FlightAware Approximate
Sun 12:03:00 AM 20.8258 -97.0770 88° East  Level FlightAware Approximate
Sun 12:04:00 AM 20.8295 -96.9494 88° East  Level FlightAware Approximate
Sun 12:05:00 AM 20.8332 -96.8218 88° East  Level FlightAware Approximate
Sun 12:06:00 AM 20.8367 -96.6942 88° East  Level FlightAware Approximate
Sun 12:07:00 AM 20.8402 -96.5666 88° East  Level FlightAware Approximate
Sun 12:08:00 AM 20.8435 -96.4390 88° East  Level FlightAware Approximate
Sun 12:09:00 AM 20.8468 -96.3114 88° East  Level FlightAware Approximate
Sun 12:10:00 AM 20.8500 -96.1838 88° East  Level FlightAware Approximate
Sun 12:11:00 AM 20.8540 -96.0562 88° East  Level FlightAware Approximate
Sun 12:12:00 AM 20.8579 -95.9286 88° East  Level FlightAware Approximate
Sun 12:13:00 AM 20.8617 -95.8010 88° East  Level FlightAware Approximate
Sun 12:14:00 AM 20.8654 -95.6734 88° East  Level FlightAware Approximate
Sun 12:15:00 AM 20.8690 -95.5458 88° East  Level FlightAware Approximate
Sun 12:16:00 AM 20.8725 -95.4181 88° East  Level FlightAware Approximate
Sun 12:17:00 AM 20.8759 -95.2905 88° East  Level FlightAware Approximate
Sun 12:18:00 AM 20.8792 -95.1629 88° East  Level FlightAware Approximate
Sun 12:19:00 AM 20.8825 -95.0352 88° East  Level FlightAware Approximate
Sun 12:20:00 AM 20.8852 -94.9076 89° East  Level FlightAware Approximate
Sun 12:21:00 AM 20.8876 -94.7799 89° East  Level FlightAware Approximate
Sun 12:22:00 AM 20.8899 -94.6522 89° East  Level FlightAware Approximate
Sun 12:23:00 AM 20.8922 -94.5246 89° East  Level FlightAware Approximate
Sun 12:24:00 AM 20.8944 -94.3969 89° East  Level FlightAware Approximate
Sun 12:25:00 AM 20.8964 -94.2692 89° East  Level FlightAware Approximate
Sun 12:26:00 AM 20.8984 -94.1415 89° East  Level FlightAware Approximate
Sun 12:27:00 AM 20.9003 -94.0138 89° East  Level FlightAware Approximate
Sun 12:28:00 AM 20.9020 -93.8861 89° East  Level FlightAware Approximate
Sun 12:29:00 AM 20.9037 -93.7584 89° East  Level FlightAware Approximate
Sun 12:30:00 AM 20.9053 -93.6307 89° East  Level FlightAware Approximate
Sun 12:31:00 AM 20.9068 -93.5030 89° East  Level FlightAware Approximate
Sun 12:32:00 AM 20.9082 -93.3753 89° East  Level FlightAware Approximate
Sun 12:33:00 AM 20.9095 -93.2476 89° East  Level FlightAware Approximate
Sun 12:34:00 AM 20.9107 -93.1199 89° East  Level FlightAware Approximate
Sun 12:35:00 AM 20.9118 -92.9922 89° East  Level FlightAware Approximate
Sun 12:36:00 AM 20.9128 -92.8645 89° East  Level FlightAware Approximate
Sun 12:37:00 AM 20.9138 -92.7368 90° East  Level FlightAware Approximate
Sun 12:38:00 AM 20.9146 -92.6090 90° East  Level FlightAware Approximate
Sun 12:39:00 AM 20.9153 -92.4813 90° East  Level FlightAware Approximate
Sun 12:40:00 AM 20.9160 -92.3536 90° East  Level FlightAware Approximate
Sun 12:41:00 AM 20.9165 -92.2259 90° East  Level FlightAware Approximate
Sun 12:42:00 AM 20.9171 -92.0982 90° East  Level FlightAware Approximate
Sun 12:43:00 AM 20.9177 -91.9705 90° East  Level FlightAware Approximate
Sun 12:44:00 AM 20.9182 -91.8428 90° East  Level FlightAware Approximate
Sun 12:45:00 AM 20.9186 -91.7150 90° East  Level FlightAware Approximate
Sun 12:46:00 AM 20.9189 -91.5873 90° East  Level FlightAware Approximate
Sun 12:47:00 AM 20.9191 -91.4596 90° East  Level FlightAware Approximate
Sun 12:48:00 AM 20.9193 -91.3319 90° East  Level FlightAware Approximate
Sun 12:49:00 AM 20.9193 -91.2041 90° East  Level FlightAware Approximate
Sun 12:50:00 AM 20.9192 -91.0764 90° East  Level FlightAware Approximate
Sun 12:51:00 AM 20.9191 -90.9487 90° East  Level FlightAware Approximate
Sun 12:52:00 AM 20.9188 -90.8210 90° East  Level FlightAware Approximate
Sun 12:53:00 AM 20.9184 -90.6933 90° East  Level FlightAware Approximate
Sun 12:54:00 AM 20.9180 -90.5656 90° East  Level FlightAware Approximate
Sun 12:55:00 AM 20.9174 -90.4378 90° East  Level FlightAware Approximate
Sun 12:56:00 AM 20.9168 -90.3101 90° East  Level FlightAware Approximate
Sun 12:57:00 AM 20.9151 -90.1824 91° East  Level FlightAware Approximate
Sun 12:58:00 AM 20.9130 -90.0547 91° East  Level FlightAware Approximate
Sun 12:59:00 AM 20.9109 -89.9270 91° East  Level FlightAware Approximate
Sun 01:00:00 AM 20.9086 -89.7993 91° East  Level FlightAware Approximate
Sun 01:01:00 AM 20.9063 -89.6716 91° East  Level FlightAware Approximate
Sun 01:02:00 AM 20.9039 -89.5439 91° East  Level FlightAware Approximate
Sun 01:03:00 AM 20.9013 -89.4162 91° East  Level FlightAware Approximate
Sun 01:04:00 AM 20.8987 -89.2886 91° East  Level FlightAware Approximate
Sun 01:05:00 AM 20.8960 -89.1609 91° East  Level FlightAware Approximate
Sun 01:06:00 AM 20.8932 -89.0332 91° East  Level FlightAware Approximate
Sun 01:07:00 AM 20.8903 -88.9056 91° East  Level FlightAware Approximate
Sun 01:08:00 AM 20.8873 -88.7779 91° East  Level FlightAware Approximate
Sun 01:09:00 AM 20.8842 -88.6503 91° East  Level FlightAware Approximate
Sun 01:10:00 AM 20.8813 -88.5226 91° East  Level FlightAware Approximate
Sun 01:11:00 AM 20.8785 -88.3950 91° East  Level FlightAware Approximate
Sun 01:12:00 AM 20.8756 -88.2673 91° East  Level FlightAware Approximate
Sun 01:13:00 AM 20.8726 -88.1397 91° East  Level FlightAware Approximate
Sun 01:14:00 AM 20.8695 -88.0120 91° East  Level FlightAware Approximate
Sun 01:15:00 AM 20.8665 -87.8844 91° East  Level FlightAware Approximate
Sun 01:16:00 AM 20.8647 -87.7567 91° East  Level FlightAware Approximate
Sun 01:17:00 AM 20.8629 -87.6291 91° East  Level FlightAware Approximate
Sun 01:18:00 AM 20.8610 -87.5014 91° East  Level FlightAware Approximate
Sun 01:19:00 AM 20.8590 -87.3738 91° East  Level FlightAware Approximate
Sun 01:20:00 AM 20.8568 -87.2461 91° East  Level FlightAware Approximate
Sun 01:21:00 AM 20.8546 -87.1185 91° East  Level FlightAware Approximate
Sun 01:22:00 AM 20.8523 -86.9908 91° East  Level FlightAware Approximate
Sun 01:23:00 AM 20.8517 -86.8697 301° West  Level FlightAware Approximate
Sun 01:24:00 AM 20.9130 -86.9792 301° West  Level FlightAware Approximate
Sun 01:25:00 AM 20.9742 -87.0889 301° West  Level FlightAware Approximate
Sun 01:26:00 AM 21.0353 -87.1986 301° West  Level FlightAware Approximate
Sun 01:27:00 AM 21.0964 -87.3084 301° West  Level FlightAware Approximate
Sun 01:28:00 AM 21.1574 -87.4183 301° West  Level FlightAware Approximate
Sun 01:29:00 AM 21.2184 -87.5283 301° West  Level FlightAware Approximate
Sun 01:30:00 AM 21.2792 -87.6384 301° West  Level FlightAware Approximate
Sun 01:31:00 AM 21.3400 -87.7486 301° West  Level FlightAware Approximate
Sun 01:32:00 AM 21.4035 -87.8570 302° West  Level FlightAware Approximate
Sun 01:33:00 AM 21.4675 -87.9652 302° West  Level FlightAware Approximate
Sun 01:34:00 AM 21.5314 -88.0735 302° West  Level FlightAware Approximate
Sun 01:34:11 AM 32.4597 -115.2933 301° West 474 545 39,900  Level Los Angeles Center
Sun 01:35:00 AM 21.5939 -88.1828 301° West  Level FlightAware Approximate
Sun 01:35:12 AM 32.5319 -115.4264 303° West 477 549 39,900  Level Los Angeles Center
Sun 01:36:00 AM 21.6546 -88.2932 301° West  Level FlightAware Approximate
Sun 01:36:12 AM 32.6036 -115.5608 302° West 482 555 40,000  Level Los Angeles Center
Sun 01:37:00 AM 21.7153 -88.4038 301° West  Level FlightAware Approximate
Sun 01:37:13 AM 32.6742 -115.6947 302° West 481 554 40,000  Level Los Angeles Center
Sun 01:38:00 AM 21.7759 -88.5144 301° West  Level FlightAware Approximate
Sun 01:38:13 AM 32.7447 -115.8289 302° West 481 554 39,100  Level Los Angeles Center
Sun 01:39:00 AM 21.8365 -88.6251 301° West  Level FlightAware Approximate
Sun 01:39:14 AM 32.8147 -115.9603 302° West 473 544 36,500  Level Los Angeles Center
Sun 01:40:14 AM 32.8853 -116.0928 302° West 477 549 33,200 -3,150 Descending Los Angeles Center
Sun 01:41:14 AM 32.9656 -116.2453 302° West 478 550 30,200 -2,678 Descending Los Angeles Center
Sun 01:42:15 AM 33.0336 -116.3744 302° West 462 532 27,800 -2,331 Descending Los Angeles Center
Sun 01:43:15 AM 33.0969 -116.5003 301° West 442 509 25,500 -2,231 Descending Los Angeles Center
Sun 01:44:16 AM 33.1450 -116.6253 295° West 432 497 23,300 -2,132 Descending Los Angeles Center
Sun 01:45:16 AM 33.1622 -116.7567 279° West 412 474 21,200 -2,100 Descending Los Angeles Center
Sun 01:46:16 AM 33.1772 -116.8844 278° West 397 457 19,100 -2,033 Descending Los Angeles Center
Sun 01:47:17 AM 33.1917 -117.0042 278° West 378 435 17,100 -1,934 Descending Los Angeles Center
Sun 01:48:17 AM 33.2058 -117.1217 278° West 364 419 15,200 -1,884 Descending Los Angeles Center
Sun 01:49:18 AM 33.2192 -117.2394 278° West 353 406 13,300 -1,587 Descending Los Angeles Center
Sun 01:50:18 AM 33.2322 -117.3522 278° West 346 398 12,000 -650 Descending Los Angeles Center
Sun 01:51:18 AM 33.2611 -117.4492 290° West 327 376 12,000  Level Los Angeles Center
Sun 01:52:19 AM 33.3306 -117.5258 317° Northwest 340 391 12,000 -545 Level Los Angeles Center
Sun 01:53:19 AM 33.3969 -117.6036 316° Northwest 337 388 10,900 -1,140 Descending Los Angeles Center
Sun 01:54:20 AM 33.4628 -117.6792 316° Northwest 331 381 9,700 -1,240 Descending Los Angeles Center
Sun 01:55:20 AM 33.5267 -117.7531 316° Northwest 323 372 8,400 -1,150 Descending Los Angeles Center
Sun 01:56:20 AM 33.5850 -117.8211 316° Northwest 303 349 7,400 -694 Descending Los Angeles Center
Sun 01:57:21 AM 33.6414 -117.8872 316° Northwest 289 333 7,000 -198 Descending Los Angeles Center
Sun 01:58:21 AM 33.6931 -117.9478 316° Northwest 270 311 7,000  Level Los Angeles Center
Sun 01:59:22 AM 33.7414 -118.0042 316° Northwest 253 291 7,000  Level Los Angeles Center
Sun 02:00:22 AM 33.7908 -118.0608 316° Northwest 249 287 7,000 -600 Level Los Angeles Center
Sun 02:01:22 AM 33.8578 -118.0742 351° North 247 284 5,800 -1,140 Descending Los Angeles Center
Sun 02:02:23 AM 33.9200 -118.0856 351° North 234 269 4,700 -1,091 Descending Los Angeles Center
Sun 02:03:23 AM 33.9639 -118.1300 320° Northwest 214 246 3,600 -1,150 Descending Los Angeles Center
Sun 02:04:23 AM 33.9736 -118.2058 279° West 197 227 2,400 -694 Descending Los Angeles Center
Sun 02:05:24 AM 33.9664 -118.2650 262° West 186 214 2,200 -446 Descending Los Angeles Center
Sun 02:06:24 AM 33.9622 -118.3153 264° West 166 191 1,500 -650 Descending Los Angeles Center
Sun 02:07:24 AM 33.9578 -118.3567 263° West 140 161 900 -645 Descending Los Angeles Center
Sun 02:08:25 AM 33.9531 -118.3983 262° West 131 151 200 -689 Descending Los Angeles Center
Sun 02:10:00 AM 33.9333 -118.4000 260° West  Level FlightAware Approximate
Sun 02:17:00 AM 33.9425 -118.4081 260° West  Level Estimated

Login

Don't have an account? Register now (free) for customized features, flight alerts, and more!